Dr.Michael Heilos
Wetterdaten: aktuell Mittwoch, 25.11.2020 23:40
Datum Zeit Temp. A. Feuchte A. Luftdruck Regen Wind Richtung Richtung Sonnenschein Solar Windchill Windben
25.11.2020 23:40 3,7 C 69 % 1021,1 hPa 0,0 l/m 5,5 km/h (1 Bft) SO 126 0 min 0 W/m 3,7 C 12,9 km/h (3 Bft)
25.11.2020 23:30 3,8 C 69 % 1021,0 hPa 0,0 l/m 4,7 km/h (1 Bft) O-SO 106 0 min 0 W/m 3,8 C 11,3 km/h (2 Bft)
25.11.2020 23:20 4,0 C 69 % 1021,0 hPa 0,0 l/m 3,9 km/h (1 Bft) O-SO 121 0 min 0 W/m 4,0 C 9,7 km/h (2 Bft)
25.11.2020 23:10 4,1 C 69 % 1021,0 hPa 0,0 l/m 6,6 km/h (2 Bft) O-SO 119 0 min 0 W/m 3,9 C 12,9 km/h (3 Bft)
25.11.2020 23:00 4,1 C 69 % 1020,8 hPa 0,0 l/m 7,4 km/h (2 Bft) O-SO 114 0 min 0 W/m 3,2 C 12,9 km/h (3 Bft)
25.11.2020 22:50 4,2 C 69 % 1020,8 hPa 0,0 l/m 3,5 km/h (1 Bft) SO 144 0 min 0 W/m 4,2 C 11,3 km/h (2 Bft)
25.11.2020 22:40 4,2 C 69 % 1020,8 hPa 0,0 l/m 4,2 km/h (1 Bft) O-SO 114 0 min 0 W/m 4,2 C 9,7 km/h (2 Bft)
25.11.2020 22:30 4,2 C 69 % 1020,7 hPa 0,0 l/m 5,0 km/h (1 Bft) O-SO 122 0 min 0 W/m 4,2 C 12,9 km/h (3 Bft)
25.11.2020 22:20 4,0 C 69 % 1020,6 hPa 0,0 l/m 6,1 km/h (2 Bft) O-SO 119 0 min 0 W/m 4,0 C 12,9 km/h (3 Bft)
25.11.2020 22:10 3,9 C 69 % 1020,6 hPa 0,0 l/m 6,9 km/h (2 Bft) O-SO 107 0 min 0 W/m 3,4 C 14,5 km/h (3 Bft)
25.11.2020 22:00 4,0 C 69 % 1020,6 hPa 0,0 l/m 6,0 km/h (2 Bft) SO 132 0 min 0 W/m 4,0 C 12,9 km/h (3 Bft)
25.11.2020 21:50 4,0 C 69 % 1020,6 hPa 0,0 l/m 5,4 km/h (1 Bft) SO 144 0 min 0 W/m 4,0 C 11,3 km/h (2 Bft)
25.11.2020 21:40 4,1 C 69 % 1020,6 hPa 0,0 l/m 5,1 km/h (1 Bft) SO 129 0 min 0 W/m 4,1 C 12,9 km/h (3 Bft)
25.11.2020 21:30 4,1 C 69 % 1020,6 hPa 0,0 l/m 4,7 km/h (1 Bft) O-SO 123 0 min 0 W/m 4,1 C 12,9 km/h (3 Bft)
25.11.2020 21:20 4,1 C 69 % 1020,4 hPa 0,0 l/m 5,7 km/h (1 Bft) SO 126 0 min 0 W/m 4,1 C 12,9 km/h (3 Bft)
25.11.2020 21:10 3,9 C 69 % 1020,4 hPa 0,0 l/m 6,8 km/h (2 Bft) SO 133 0 min 0 W/m 3,5 C 14,5 km/h (3 Bft)
25.11.2020 21:00 3,8 C 69 % 1020,4 hPa 0,0 l/m 4,5 km/h (1 Bft) O-SO 109 0 min 0 W/m 3,8 C 12,9 km/h (3 Bft)
25.11.2020 20:50 3,7 C 70 % 1020,3 hPa 0,0 l/m 6,1 km/h (2 Bft) O 91 0 min 0 W/m 3,7 C 14,5 km/h (3 Bft)
25.11.2020 20:40 3,7 C 69 % 1020,3 hPa 0,0 l/m 5,7 km/h (1 Bft) SO 144 0 min 0 W/m 3,7 C 14,5 km/h (3 Bft)
25.11.2020 20:30 3,8 C 69 % 1020,3 hPa 0,0 l/m 5,9 km/h (2 Bft) SO 135 0 min 0 W/m 3,8 C 14,5 km/h (3 Bft)
25.11.2020 20:20 3,8 C 70 % 1020,4 hPa 0,0 l/m 7,1 km/h (2 Bft) SO 142 0 min 0 W/m 3,2 C 14,5 km/h (3 Bft)
25.11.2020 20:10 3,8 C 70 % 1020,2 hPa 0,0 l/m 5,5 km/h (1 Bft) O-SO 107 0 min 0 W/m 3,8 C 14,5 km/h (3 Bft)
25.11.2020 20:00 3,8 C 69 % 1020,3 hPa 0,0 l/m 5,9 km/h (2 Bft) O-SO 122 0 min 0 W/m 3,8 C 12,9 km/h (3 Bft)
25.11.2020 19:50 3,9 C 69 % 1020,3 hPa 0,0 l/m 6,7 km/h (2 Bft) SO 132 0 min 0 W/m 3,6 C 14,5 km/h (3 Bft)
25.11.2020 19:40 3,9 C 69 % 1020,2 hPa 0,0 l/m 5,6 km/h (1 Bft) O-SO 121 0 min 0 W/m 3,9 C 14,5 km/h (3 Bft)
25.11.2020 19:30 4,1 C 69 % 1020,3 hPa 0,0 l/m 4,5 km/h (1 Bft) SO 134 0 min 0 W/m 4,1 C 14,5 km/h (3 Bft)
25.11.2020 19:20 4,1 C 69 % 1020,3 hPa 0,0 l/m 4,3 km/h (1 Bft) O-SO 115 0 min 0 W/m 4,1 C 11,3 km/h (2 Bft)
25.11.2020 19:10 4,1 C 69 % 1020,3 hPa 0,0 l/m 4,2 km/h (1 Bft) SO 128 0 min 0 W/m 4,1 C 11,3 km/h (2 Bft)
25.11.2020 19:00 4,2 C 69 % 1020,3 hPa 0,0 l/m 5,9 km/h (2 Bft) O-SO 120 0 min 0 W/m 4,2 C 14,5 km/h (3 Bft)
25.11.2020 18:50 4,2 C 69 % 1020,3 hPa 0,0 l/m 6,6 km/h (2 Bft) O-SO 121 0 min 0 W/m 4,0 C 16,1 km/h (3 Bft)
25.11.2020 18:40 4,4 C 69 % 1020,3 hPa 0,0 l/m 4,2 km/h (1 Bft) O-SO 115 0 min 0 W/m 4,4 C 11,3 km/h (2 Bft)
25.11.2020 18:30 4,4 C 69 % 1020,2 hPa 0,0 l/m 2,5 km/h (1 Bft) O-SO 119 0 min 0 W/m 4,4 C 11,3 km/h (2 Bft)
25.11.2020 18:20 4,6 C 69 % 1020,0 hPa 0,0 l/m 2,9 km/h (1 Bft) SO 130 0 min 0 W/m 4,6 C 9,7 km/h (2 Bft)
25.11.2020 18:10 4,7 C 69 % 1019,8 hPa 0,0 l/m 4,2 km/h (1 Bft) O-SO 122 0 min 0 W/m 4,7 C 14,5 km/h (3 Bft)
25.11.2020 18:00 4,8 C 68 % 1019,9 hPa 0,0 l/m 3,0 km/h (1 Bft) S-SO 155 0 min 0 W/m 4,8 C 12,9 km/h (3 Bft)
25.11.2020 17:50 4,9 C 69 % 1019,9 hPa 0,0 l/m 5,1 km/h (1 Bft) O-SO 121 0 min 0 W/m 4,9 C 12,9 km/h (3 Bft)
25.11.2020 17:40 4,9 C 69 % 1019,8 hPa 0,0 l/m 8,3 km/h (2 Bft) O 84 0 min 0 W/m 3,3 C 17,7 km/h (3 Bft)
25.11.2020 17:30 5,0 C 69 % 1019,7 hPa 0,0 l/m 5,7 km/h (1 Bft) SO 130 0 min 0 W/m 5,0 C 11,3 km/h (2 Bft)
25.11.2020 17:20 5,2 C 68 % 1019,6 hPa 0,0 l/m 7,0 km/h (2 Bft) SO 136 0 min 0 W/m 4,7 C 12,9 km/h (3 Bft)
25.11.2020 17:10 5,3 C 68 % 1019,8 hPa 0,0 l/m 3,5 km/h (1 Bft) O-SO 104 0 min 0 W/m 5,3 C 11,3 km/h (2 Bft)
25.11.2020 17:00 5,4 C 68 % 1019,7 hPa 0,0 l/m 4,7 km/h (1 Bft) SO 139 0 min 0 W/m 5,4 C 12,9 km/h (3 Bft)
25.11.2020 16:50 5,6 C 68 % 1019,7 hPa 0,0 l/m 4,1 km/h (1 Bft) O-SO 116 0 min 0 W/m 5,6 C 9,7 km/h (2 Bft)
25.11.2020 16:40 5,8 C 68 % 1019,6 hPa 0,0 l/m 4,0 km/h (1 Bft) SO 140 0 min 0 W/m 5,8 C 9,7 km/h (2 Bft)
25.11.2020 16:30 6,1 C 67 % 1019,7 hPa 0,0 l/m 3,4 km/h (1 Bft) O-SO 116 0 min 0 W/m 6,1 C 9,7 km/h (2 Bft)
25.11.2020 16:20 6,3 C 67 % 1019,6 hPa 0,0 l/m 3,1 km/h (1 Bft) SO 135 0 min 0 W/m 6,3 C 9,7 km/h (2 Bft)
25.11.2020 16:10 6,6 C 66 % 1019,6 hPa 0,0 l/m 2,4 km/h (1 Bft) O-SO 121 0 min 7 W/m 6,6 C 9,7 km/h (2 Bft)
25.11.2020 16:00 6,8 C 65 % 1019,5 hPa 0,0 l/m 2,4 km/h (1 Bft) SO 132 0 min 11 W/m 6,8 C 4,8 km/h (1 Bft)
25.11.2020 15:50 7,1 C 64 % 1019,4 hPa 0,0 l/m 2,4 km/h (1 Bft) O-SO 119 0 min 18 W/m 7,1 C 9,7 km/h (2 Bft)
25.11.2020 15:40 7,4 C 64 % 1019,3 hPa 0,0 l/m 2,2 km/h (1 Bft) S 169 0 min 25 W/m 7,4 C 8,0 km/h (2 Bft)
25.11.2020 15:30 7,6 C 64 % 1019,2 hPa 0,0 l/m 2,3 km/h (1 Bft) S 174 0 min 35 W/m 7,6 C 6,4 km/h (2 Bft)
25.11.2020 15:20 7,7 C 63 % 1019,1 hPa 0,0 l/m 2,1 km/h (1 Bft) S-SW 194 0 min 42 W/m 7,7 C 8,0 km/h (2 Bft)
25.11.2020 15:10 7,7 C 63 % 1019,2 hPa 0,0 l/m 1,8 km/h (1 Bft) S-SW 192 0 min 51 W/m 7,7 C 9,7 km/h (2 Bft)
25.11.2020 15:00 7,8 C 63 % 1019,1 hPa 0,0 l/m 1,7 km/h (1 Bft) S-SO 167 0 min 44 W/m 7,8 C 8,0 km/h (2 Bft)
25.11.2020 14:50 7,9 C 63 % 1019,1 hPa 0,0 l/m 2,4 km/h (1 Bft) S 179 0 min 51 W/m 7,9 C 8,0 km/h (2 Bft)
25.11.2020 14:40 7,9 C 62 % 1019,1 hPa 0,0 l/m 2,9 km/h (1 Bft) O-SO 116 0 min 53 W/m 7,9 C 11,3 km/h (2 Bft)
25.11.2020 14:30 8,1 C 62 % 1019,1 hPa 0,0 l/m 3,3 km/h (1 Bft) SO 127 0 min 63 W/m 8,1 C 12,9 km/h (3 Bft)
25.11.2020 14:20 8,2 C 62 % 1019,2 hPa 0,0 l/m 3,4 km/h (1 Bft) S 175 0 min 84 W/m 8,2 C 12,9 km/h (3 Bft)
25.11.2020 14:10 8,2 C 62 % 1019,1 hPa 0,0 l/m 2,9 km/h (1 Bft) SO 137 0 min 109 W/m 8,2 C 11,3 km/h (2 Bft)
25.11.2020 14:00 8,1 C 62 % 1019,0 hPa 0,0 l/m 4,1 km/h (1 Bft) SO 125 0 min 123 W/m 8,1 C 14,5 km/h (3 Bft)
25.11.2020 13:50 7,9 C 63 % 1019,0 hPa 0,0 l/m 4,9 km/h (1 Bft) S-SO 148 10 min 155 W/m 7,9 C 14,5 km/h (3 Bft)
25.11.2020 13:40 7,9 C 62 % 1019,1 hPa 0,0 l/m 4,4 km/h (1 Bft) S 175 0 min 125 W/m 7,9 C 14,5 km/h (3 Bft)
25.11.2020 13:30 8,1 C 62 % 1019,0 hPa 0,0 l/m 4,2 km/h (1 Bft) SO 128 0 min 107 W/m 8,1 C 14,5 km/h (3 Bft)
25.11.2020 13:20 8,0 C 63 % 1019,1 hPa 0,0 l/m 4,4 km/h (1 Bft) SO 130 10 min 153 W/m 8,0 C 12,9 km/h (3 Bft)
25.11.2020 13:10 8,0 C 62 % 1019,2 hPa 0,0 l/m 4,2 km/h (1 Bft) O-SO 119 10 min 236 W/m 8,0 C 12,9 km/h (3 Bft)
25.11.2020 13:00 7,6 C 63 % 1019,2 hPa 0,0 l/m 5,3 km/h (1 Bft) O-SO 102 10 min 278 W/m 7,6 C 12,9 km/h (3 Bft)
25.11.2020 12:50 7,3 C 64 % 1019,4 hPa 0,0 l/m 4,0 km/h (1 Bft) S-SW 207 10 min 271 W/m 7,3 C 9,7 km/h (2 Bft)
25.11.2020 12:40 7,1 C 64 % 1019,3 hPa 0,0 l/m 5,2 km/h (1 Bft) SO 126 0 min 86 W/m 7,1 C 14,5 km/h (3 Bft)
25.11.2020 12:30 6,8 C 64 % 1019,3 hPa 0,0 l/m 3,4 km/h (1 Bft) O 97 0 min 76 W/m 6,8 C 12,9 km/h (3 Bft)
25.11.2020 12:20 6,6 C 64 % 1019,2 hPa 0,0 l/m 5,0 km/h (1 Bft) S 175 0 min 69 W/m 6,6 C 14,5 km/h (3 Bft)
25.11.2020 12:10 6,5 C 64 % 1019,2 hPa 0,0 l/m 5,6 km/h (1 Bft) S-SO 159 0 min 60 W/m 6,5 C 17,7 km/h (3 Bft)
25.11.2020 12:00 6,4 C 65 % 1019,1 hPa 0,0 l/m 5,1 km/h (1 Bft) S 186 0 min 54 W/m 6,4 C 19,3 km/h (3 Bft)
25.11.2020 11:50 6,3 C 65 % 1019,3 hPa 0,0 l/m 5,0 km/h (1 Bft) S-SO 151 0 min 51 W/m 6,3 C 16,1 km/h (3 Bft)
25.11.2020 11:40 6,3 C 65 % 1019,3 hPa 0,0 l/m 5,9 km/h (2 Bft) S 181 0 min 51 W/m 6,3 C 14,5 km/h (3 Bft)
25.11.2020 11:30 6,2 C 65 % 1019,2 hPa 0,0 l/m 4,6 km/h (1 Bft) S-SO 150 0 min 51 W/m 6,2 C 14,5 km/h (3 Bft)
25.11.2020 11:20 6,1 C 65 % 1019,2 hPa 0,0 l/m 5,9 km/h (2 Bft) O-SO 115 0 min 51 W/m 6,1 C 19,3 km/h (3 Bft)
25.11.2020 11:10 6,0 C 65 % 1019,1 hPa 0,0 l/m 6,9 km/h (2 Bft) SO 124 0 min 49 W/m 5,6 C 17,7 km/h (3 Bft)
25.11.2020 11:00 5,8 C 65 % 1019,1 hPa 0,0 l/m 8,3 km/h (2 Bft) SO 126 0 min 46 W/m 4,2 C 19,3 km/h (3 Bft)
25.11.2020 10:50 5,7 C 66 % 1019,2 hPa 0,0 l/m 6,3 km/h (2 Bft) O-SO 119 0 min 44 W/m 5,7 C 17,7 km/h (3 Bft)
25.11.2020 10:40 5,6 C 66 % 1019,0 hPa 0,0 l/m 4,8 km/h (1 Bft) O-SO 111 0 min 39 W/m 5,6 C 16,1 km/h (3 Bft)
25.11.2020 10:30 5,4 C 66 % 1018,9 hPa 0,0 l/m 6,6 km/h (2 Bft) O-SO 119 0 min 39 W/m 5,2 C 16,1 km/h (3 Bft)
25.11.2020 10:20 5,3 C 66 % 1018,9 hPa 0,0 l/m 7,6 km/h (2 Bft) O-SO 111 0 min 40 W/m 4,3 C 19,3 km/h (3 Bft)
25.11.2020 10:10 5,2 C 66 % 1019,0 hPa 0,0 l/m 6,1 km/h (2 Bft) SO 132 0 min 42 W/m 5,2 C 12,9 km/h (3 Bft)
25.11.2020 10:00 5,0 C 66 % 1019,0 hPa 0,0 l/m 5,6 km/h (1 Bft) SO 136 0 min 40 W/m 5,0 C 12,9 km/h (3 Bft)
25.11.2020 09:50 4,9 C 67 % 1018,9 hPa 0,0 l/m 4,7 km/h (1 Bft) S-SO 152 0 min 40 W/m 4,9 C 16,1 km/h (3 Bft)
25.11.2020 09:40 4,8 C 67 % 1019,0 hPa 0,0 l/m 4,2 km/h (1 Bft) S-SO 159 0 min 39 W/m 4,8 C 11,3 km/h (2 Bft)
25.11.2020 09:30 4,6 C 67 % 1019,0 hPa 0,0 l/m 2,1 km/h (1 Bft) O-SO 121 0 min 35 W/m 4,6 C 9,7 km/h (2 Bft)
25.11.2020 09:20 4,4 C 67 % 1018,9 hPa 0,0 l/m 3,4 km/h (1 Bft) O-SO 115 0 min 49 W/m 4,4 C 11,3 km/h (2 Bft)
25.11.2020 09:10 4,3 C 67 % 1018,7 hPa 0,0 l/m 3,2 km/h (1 Bft) SO 145 0 min 42 W/m 4,3 C 12,9 km/h (3 Bft)
25.11.2020 09:00 4,2 C 68 % 1018,8 hPa 0,0 l/m 6,0 km/h (2 Bft) SO 134 0 min 26 W/m 4,2 C 17,7 km/h (3 Bft)
25.11.2020 08:50 4,1 C 68 % 1018,8 hPa 0,0 l/m 3,9 km/h (1 Bft) O-SO 109 0 min 25 W/m 4,1 C 12,9 km/h (3 Bft)
25.11.2020 08:40 3,9 C 68 % 1018,8 hPa 0,0 l/m 5,4 km/h (1 Bft) SO 124 0 min 19 W/m 3,9 C 19,3 km/h (3 Bft)
25.11.2020 08:30 3,8 C 68 % 1018,8 hPa 0,0 l/m 4,5 km/h (1 Bft) O-SO 119 0 min 16 W/m 3,8 C 16,1 km/h (3 Bft)
25.11.2020 08:20 3,7 C 68 % 1018,8 hPa 0,0 l/m 2,9 km/h (1 Bft) S-SO 157 0 min 12 W/m 3,7 C 9,7 km/h (2 Bft)
25.11.2020 08:10 3,7 C 68 % 1018,8 hPa 0,0 l/m 3,1 km/h (1 Bft) S-SO 162 0 min 7 W/m 3,7 C 8,0 km/h (2 Bft)
25.11.2020 08:00 3,7 C 68 % 1018,8 hPa 0,0 l/m 4,9 km/h (1 Bft) S 190 0 min 5 W/m 3,7 C 16,1 km/h (3 Bft)
25.11.2020 07:50 3,7 C 69 % 1018,7 hPa 0,0 l/m 5,5 km/h (1 Bft) S-SO 156 0 min 0 W/m 3,7 C 14,5 km/h (3 Bft)
25.11.2020 07:40 3,6 C 69 % 1018,7 hPa 0,0 l/m 3,8 km/h (1 Bft) SO 134 0 min 0 W/m 3,6 C 16,1 km/h (3 Bft)
25.11.2020 07:30 3,6 C 69 % 1018,7 hPa 0,0 l/m 3,0 km/h (1 Bft) S 172 0 min 0 W/m 3,6 C 11,3 km/h (2 Bft)
25.11.2020 07:20 3,6 C 68 % 1018,8 hPa 0,0 l/m 2,7 km/h (1 Bft) S-SO 165 0 min 0 W/m 3,6 C 12,9 km/h (3 Bft)
25.11.2020 07:10 3,6 C 69 % 1018,7 hPa 0,0 l/m 4,4 km/h (1 Bft) S-SW 193 0 min 0 W/m 3,6 C 11,3 km/h (2 Bft)
25.11.2020 07:00 3,6 C 68 % 1018,8 hPa 0,0 l/m 4,4 km/h (1 Bft) S-SW 205 0 min 0 W/m 3,6 C 16,1 km/h (3 Bft)
25.11.2020 06:50 3,7 C 69 % 1018,8 hPa 0,0 l/m 9,2 km/h (2 Bft) O-SO 121 0 min 0 W/m 1,2 C 19,3 km/h (3 Bft)
25.11.2020 06:40 3,6 C 69 % 1018,8 hPa 0,0 l/m 5,7 km/h (1 Bft) O 90 0 min 0 W/m 3,6 C 16,1 km/h (3 Bft)
25.11.2020 06:30 3,6 C 69 % 1018,9 hPa 0,0 l/m 4,2 km/h (1 Bft) SO 128 0 min 0 W/m 3,6 C 12,9 km/h (3 Bft)
25.11.2020 06:20 3,5 C 69 % 1018,9 hPa 0,0 l/m 3,5 km/h (1 Bft) SO 129 0 min 0 W/m 3,5 C 8,0 km/h (2 Bft)
25.11.2020 06:10 3,6 C 69 % 1018,9 hPa 0,0 l/m 3,5 km/h (1 Bft) O 99 0 min 0 W/m 3,6 C 12,9 km/h (3 Bft)
25.11.2020 06:00 3,6 C 69 % 1019,0 hPa 0,0 l/m 4,6 km/h (1 Bft) O-SO 119 0 min 0 W/m 3,6 C 14,5 km/h (3 Bft)
25.11.2020 05:50 3,5 C 69 % 1019,0 hPa 0,0 l/m 3,2 km/h (1 Bft) O-SO 103 0 min 0 W/m 3,5 C 14,5 km/h (3 Bft)
25.11.2020 05:40 3,4 C 69 % 1019,0 hPa 0,0 l/m 2,9 km/h (1 Bft) SO 146 0 min 0 W/m 3,4 C 11,3 km/h (2 Bft)
25.11.2020 05:30 3,5 C 69 % 1019,1 hPa 0,0 l/m 3,8 km/h (1 Bft) O 98 0 min 0 W/m 3,5 C 12,9 km/h (3 Bft)
25.11.2020 05:20 3,5 C 69 % 1019,0 hPa 0,0 l/m 3,3 km/h (1 Bft) O-SO 105 0 min 0 W/m 3,5 C 11,3 km/h (2 Bft)
25.11.2020 05:10 3,4 C 69 % 1019,0 hPa 0,0 l/m 3,2 km/h (1 Bft) SO 134 0 min 0 W/m 3,4 C 12,9 km/h (3 Bft)
25.11.2020 05:00 3,6 C 69 % 1019,0 hPa 0,0 l/m 3,8 km/h (1 Bft) SO 140 0 min 0 W/m 3,6 C 12,9 km/h (3 Bft)
25.11.2020 04:50 3,6 C 69 % 1018,9 hPa 0,0 l/m 3,0 km/h (1 Bft) S 169 0 min 0 W/m 3,6 C 11,3 km/h (2 Bft)
25.11.2020 04:40 3,6 C 69 % 1018,9 hPa 0,0 l/m 3,6 km/h (1 Bft) O 101 0 min 0 W/m 3,6 C 12,9 km/h (3 Bft)
25.11.2020 04:30 3,5 C 69 % 1019,0 hPa 0,0 l/m 2,9 km/h (1 Bft) S 181 0 min 0 W/m 3,5 C 9,7 km/h (2 Bft)
25.11.2020 04:20 3,4 C 69 % 1019,1 hPa 0,0 l/m 4,3 km/h (1 Bft) O-SO 111 0 min 0 W/m 3,4 C 14,5 km/h (3 Bft)
25.11.2020 04:10 3,5 C 69 % 1019,1 hPa 0,0 l/m 4,2 km/h (1 Bft) O-SO 122 0 min 0 W/m 3,5 C 12,9 km/h (3 Bft)
25.11.2020 04:00 3,4 C 69 % 1019,2 hPa 0,0 l/m 4,0 km/h (1 Bft) S-SO 147 0 min 0 W/m 3,4 C 16,1 km/h (3 Bft)
25.11.2020 03:50 3,4 C 69 % 1019,3 hPa 0,0 l/m 4,2 km/h (1 Bft) O-SO 104 0 min 0 W/m 3,4 C 12,9 km/h (3 Bft)
25.11.2020 03:40 3,3 C 69 % 1019,3 hPa 0,0 l/m 3,1 km/h (1 Bft) O 91 0 min 0 W/m 3,3 C 14,5 km/h (3 Bft)
25.11.2020 03:30 3,3 C 69 % 1019,4 hPa 0,0 l/m 4,7 km/h (1 Bft) SO 146 0 min 0 W/m 3,3 C 12,9 km/h (3 Bft)
25.11.2020 03:20 3,2 C 69 % 1019,4 hPa 0,0 l/m 3,5 km/h (1 Bft) O 94 0 min 0 W/m 3,2 C 12,9 km/h (3 Bft)
25.11.2020 03:10 3,2 C 69 % 1019,5 hPa 0,0 l/m 4,3 km/h (1 Bft) O 94 0 min 0 W/m 3,2 C 9,7 km/h (2 Bft)
25.11.2020 03:00 3,1 C 69 % 1019,5 hPa 0,0 l/m 3,5 km/h (1 Bft) O-SO 104 0 min 0 W/m 3,1 C 9,7 km/h (2 Bft)
25.11.2020 02:50 3,1 C 69 % 1019,6 hPa 0,0 l/m 3,5 km/h (1 Bft) O-SO 110 0 min 0 W/m 3,1 C 12,9 km/h (3 Bft)
25.11.2020 02:40 3,1 C 69 % 1019,7 hPa 0,0 l/m 4,1 km/h (1 Bft) O-SO 106 0 min 0 W/m 3,1 C 11,3 km/h (2 Bft)
25.11.2020 02:30 3,1 C 69 % 1019,7 hPa 0,0 l/m 4,2 km/h (1 Bft) O 83 0 min 0 W/m 3,1 C 9,7 km/h (2 Bft)
25.11.2020 02:20 3,1 C 69 % 1019,8 hPa 0,0 l/m 3,9 km/h (1 Bft) O-SO 105 0 min 0 W/m 3,1 C 11,3 km/h (2 Bft)
25.11.2020 02:10 3,1 C 69 % 1019,8 hPa 0,0 l/m 5,4 km/h (1 Bft) SO 124 0 min 0 W/m 3,1 C 16,1 km/h (3 Bft)
25.11.2020 02:00 3,1 C 69 % 1019,9 hPa 0,0 l/m 4,3 km/h (1 Bft) O-NO 71 0 min 0 W/m 3,1 C 11,3 km/h (2 Bft)
25.11.2020 01:50 3,1 C 69 % 1020,0 hPa 0,0 l/m 5,8 km/h (2 Bft) O-SO 107 0 min 0 W/m 3,1 C 16,1 km/h (3 Bft)
25.11.2020 01:40 3,1 C 69 % 1020,2 hPa 0,0 l/m 6,5 km/h (2 Bft) O 89 0 min 0 W/m 3,0 C 14,5 km/h (3 Bft)
25.11.2020 01:30 3,2 C 69 % 1020,4 hPa 0,0 l/m 8,0 km/h (2 Bft) O-SO 118 0 min 0 W/m 1,7 C 14,5 km/h (3 Bft)
25.11.2020 01:20 3,2 C 69 % 1020,7 hPa 0,0 l/m 7,9 km/h (2 Bft) O-SO 117 0 min 0 W/m 1,8 C 14,5 km/h (3 Bft)
25.11.2020 01:10 3,2 C 69 % 1020,7 hPa 0,0 l/m 5,4 km/h (1 Bft) SO 125 0 min 0 W/m 3,2 C 16,1 km/h (3 Bft)
25.11.2020 01:00 3,2 C 69 % 1020,9 hPa 0,0 l/m 6,6 km/h (2 Bft) O-SO 109 0 min 0 W/m 3,0 C 16,1 km/h (3 Bft)
25.11.2020 00:50 3,2 C 69 % 1021,0 hPa 0,0 l/m 6,7 km/h (2 Bft) S-SO 158 0 min 0 W/m 2,9 C 16,1 km/h (3 Bft)
25.11.2020 00:40 3,1 C 69 % 1021,1 hPa 0,0 l/m 5,4 km/h (1 Bft) O-SO 119 0 min 0 W/m 3,1 C 14,5 km/h (3 Bft)
25.11.2020 00:30 2,9 C 69 % 1021,1 hPa 0,0 l/m 2,5 km/h (1 Bft) O-SO 115 0 min 0 W/m 2,9 C 8,0 km/h (2 Bft)
25.11.2020 00:20 3,0 C 69 % 1021,1 hPa 0,0 l/m 4,1 km/h (1 Bft) O-SO 103 0 min 0 W/m 3,0 C 11,3 km/h (2 Bft)
25.11.2020 00:10 2,9 C 69 % 1021,3 hPa 0,0 l/m 2,6 km/h (1 Bft) O-NO 63 0 min 0 W/m 2,9 C 11,3 km/h (2 Bft)
25.11.2020 00:00 2,9 C 69 % 1021,2 hPa 0,0 l/m 4,0 km/h (1 Bft) O-NO 63 0 min 0 W/m 2,9 C 12,9 km/h (3 Bft)
_ Min-Zeit 00:00 13:10 07:10 - 15:00 - - - - 06:50 16:00
Minimum _ 2,9 C 62 % 1018,7 hPa - 1,7 km/h (1 Bft) - - - - 1,2 C 4,8 km/h (1 Bft)
_ Max-Zeit 14:10 20:10 00:10 00:00 06:50 - - 12:50 13:00 14:10 06:50
Maximum _ 8,2 C 70 % 1021,3 hPa 0,0 l/m 9,2 km/h
O-SO (2 Bft)
- - 10 min 278 W/m 8,2 C 19,3 km/h
O-SO (3 Bft)
Durchschnitt _ 4,7 C 67 % 1019,6 hPa #0,0 l/m 4,6 km/h (1 Bft) O-SO - #50 min. 65 W/m 4,6 C 13,0 km/h (3 Bft)